| Date | Time | Temp. (oF) | Dew Point (oF) | Rel. Hum. (%) | Press. (in.) | Wind Dir. | Wind Speed (mph) | Hourly Rainfall (in.) |
|
|---|---|---|---|---|---|---|---|---|---|
| 1 | 05/03 | 00:00 | 61 | 54 | 80 | 29.99 | ESE | 5 | 0.00 |
| 2 | 05/02 | 23:00 | 63 | 55 | 76 | 29.99 | E | 13 | 0.00 |
| 3 | 05/02 | 22:00 | 65 | 56 | 73 | 29.97 | ENE | 4 | 0.00 |
| 4 | 05/02 | 21:00 | 67 | 57 | 71 | 29.94 | E | 2 | 0.00 |
| 5 | 05/02 | 20:00 | 70 | 57 | 64 | 29.91 | ENE | 7 | 0.00 |
| 6 | 05/02 | 19:00 | 74 | 57 | 57 | 29.88 | SSE | 7 | 0.00 |
| 7 | 05/02 | 18:00 | 77 | 58 | 53 | 29.86 | ESE | 9 | 0.00 |
| 8 | 05/02 | 17:00 | 78 | 60 | 55 | 29.85 | ENE | 7 | 0.00 |
| 9 | 05/02 | 16:00 | 76 | 59 | 56 | 29.87 | NNE | 8 | 0.00 |
| 10 | 05/02 | 15:00 | 74 | 59 | 60 | 29.91 | ENE | 7 | 0.00 |
| 11 | 05/02 | 14:00 | 73 | 55 | 55 | 29.93 | ESE | 5 | 0.00 |
| 12 | 05/02 | 13:00 | 70 | 55 | 61 | 29.95 | NNE | 2 | 0.00 |
| 13 | 05/02 | 12:00 | 67 | 55 | 66 | 29.96 | SW | 0 | 0.00 |
| 14 | 05/02 | 11:00 | 64 | 55 | 73 | 29.98 | S | 0 | 0.00 |
| 15 | 05/02 | 10:00 | 57 | 52 | 85 | 29.98 | ENE | 0 | 0.00 |
| 16 | 05/02 | 09:00 | 53 | 50 | 91 | 29.98 | S | 2 | 0.00 |
| 17 | 05/02 | 08:00 | 52 | 50 | 96 | 29.98 | SSE | 2 | 0.00 |
| 18 | 05/02 | 07:00 | 48 | 48 | 100 | 29.97 | NE | 1 | 0.00 |
| 19 | 05/02 | 06:00 | 46 | 45 | 100 | 29.96 | NE | 0 | 0.00 |
| 20 | 05/02 | 05:00 | 45 | 45 | 100 | 29.95 | SSW | 3 | 0.00 |
| 21 | 05/02 | 04:00 | 46 | 45 | 98 | 29.95 | NE | 2 | 0.00 |
| 22 | 05/02 | 03:00 | 48 | 47 | 97 | 29.95 | NE | 0 | 0.00 |
| 23 | 05/02 | 02:00 | 49 | 47 | 96 | 29.97 | NNE | 2 | 0.00 |
| 24 | 05/02 | 01:00 | 49 | 47 | 94 | 29.98 | E | 1 | 0.00 |